Time;durP1;ratioP1;P1;durP2;ratioP2;P2;SDS_P1;SDS_P2;PMS_P1;PMS_P2;Temp;Humidity;BMP_temperature;BMP_pressure;BME280_temperature;BME280_humidity;BME280_pressure;Samples;Min_cycle;Max_cycle;Signal;HPM_P1;HPM_P2
2023/05/13 00:02:20;;;;;;;13.13;8.60;;;;;;;9.54;100.00;100705.69;5022111;28;20255;-72
2023/05/13 00:04:46;;;;;;;15.17;8.60;;;;;;;9.51;100.00;100697.69;5025002;28;20280;-71
2023/05/13 00:07:13;;;;;;;9.97;7.90;;;;;;;9.49;100.00;100688.84;5024676;28;20206;-71
2023/05/13 00:09:39;;;;;;;11.33;8.40;;;;;;;9.58;100.00;100691.69;5020445;28;20209;-71
2023/05/13 00:12:06;;;;;;;11.00;8.37;;;;;;;9.55;100.00;100685.44;5023781;28;20217;-72
2023/05/13 00:14:32;;;;;;;8.83;7.20;;;;;;;9.53;100.00;100679.22;5003050;28;20235;-73
2023/05/13 00:17:01;;;;;;;9.10;7.70;;;;;;;9.54;100.00;100678.38;5028967;28;20221;-71
2023/05/13 00:19:27;;;;;;;10.17;7.77;;;;;;;9.61;100.00;100657.41;5023403;28;20299;-71
2023/05/13 00:21:53;;;;;;;11.03;7.73;;;;;;;9.61;100.00;100649.47;5027357;28;20237;-70
2023/05/13 00:24:19;;;;;;;13.37;7.47;;;;;;;9.74;100.00;100653.25;5028695;28;20578;-71
2023/05/13 00:26:46;;;;;;;9.97;8.00;;;;;;;9.74;100.00;100648.88;5023168;28;20666;-70
2023/05/13 00:29:12;;;;;;;11.47;8.77;;;;;;;9.74;100.00;100658.56;5022935;28;20203;-70
2023/05/13 00:31:39;;;;;;;10.03;8.27;;;;;;;9.76;100.00;100662.13;5012347;28;20222;-71
2023/05/13 00:34:05;;;;;;;11.23;8.67;;;;;;;9.85;100.00;100659.66;5023709;28;20233;-70
2023/05/13 00:36:32;;;;;;;10.90;8.70;;;;;;;9.92;100.00;100661.56;5019838;28;20273;-71
2023/05/13 00:38:58;;;;;;;15.23;8.83;;;;;;;9.86;100.00;100663.19;5005895;28;20601;-72
2023/05/13 00:41:24;;;;;;;12.20;8.10;;;;;;;9.89;100.00;100666.78;5006734;28;20633;-71
2023/05/13 00:43:54;;;;;;;9.23;7.73;;;;;;;9.83;100.00;100664.03;5010264;28;20278;-71
2023/05/13 00:46:21;;;;;;;11.83;8.47;;;;;;;9.81;100.00;100664.84;5023878;28;20196;-70
2023/05/13 00:48:49;;;;;;;12.27;8.13;;;;;;;9.80;100.00;100663.97;5029176;28;20199;-71
2023/05/13 00:51:15;;;;;;;11.67;8.50;;;;;;;9.78;100.00;100665.69;5022545;28;20655;-71
2023/05/13 00:53:42;;;;;;;10.53;8.00;;;;;;;9.77;100.00;100658.63;5026473;28;20243;-71
2023/05/13 00:56:08;;;;;;;10.77;8.33;;;;;;;9.78;100.00;100664.78;5022689;28;20594;-70
2023/05/13 00:58:35;;;;;;;12.73;8.03;;;;;;;9.77;100.00;100666.56;5022831;28;20255;-72
2023/05/13 01:01:33;;;;;;;11.07;8.17;;;;;;;9.78;100.00;100667.44;5026577;28;20283;-72
2023/05/13 01:04:02;;;;;;;11.93;8.10;;;;;;;9.82;100.00;100672.81;5001077;28;20877;-72
2023/05/13 01:06:50;;;;;;;12.67;8.27;;;;;;;9.98;100.00;100671.38;5005594;28;20192;-72
2023/05/13 01:09:58;;;;;;;14.00;8.47;;;;;;;10.07;100.00;100670.69;5023798;28;20749;-70
2023/05/13 01:12:42;;;;;;;13.07;9.07;;;;;;;10.09;100.00;100674.25;5006121;28;20636;-70
2023/05/13 01:15:16;;;;;;;10.40;8.40;;;;;;;10.12;100.00;100674.31;5022023;28;20636;-70
2023/05/13 01:17:54;;;;;;;14.07;8.60;;;;;;;10.16;100.00;100670.88;5002899;28;20594;-70
2023/05/13 01:20:22;;;;;;;13.20;7.97;;;;;;;10.12;100.00;100667.28;5002788;28;20643;-70
2023/05/13 01:22:49;;;;;;;11.40;8.10;;;;;;;10.18;100.00;100666.50;5022234;28;20273;-70
2023/05/13 01:25:16;;;;;;;11.70;8.33;;;;;;;10.20;100.00;100672.72;5007109;28;20718;-71
2023/05/13 01:27:42;;;;;;;10.57;7.77;;;;;;;10.19;100.00;100660.34;5028240;28;20586;-70
2023/05/13 01:30:09;;;;;;;9.87;7.10;;;;;;;10.12;100.00;100661.97;5020772;28;20241;-70
2023/05/13 01:32:37;;;;;;;11.67;8.10;;;;;;;10.14;100.00;100662.91;5027124;28;20224;-70
2023/05/13 01:35:05;;;;;;;10.30;7.93;;;;;;;10.17;100.00;100664.72;5022091;28;20312;-70
2023/05/13 01:37:32;;;;;;;12.07;8.20;;;;;;;10.20;100.00;100668.34;5019936;28;20204;-71
2023/05/13 01:39:58;;;;;;;10.90;7.67;;;;;;;10.20;100.00;100665.69;5025622;28;20204;-70
2023/05/13 01:42:27;;;;;;;12.43;8.60;;;;;;;10.22;100.00;100673.66;5022560;28;20710;-70
2023/05/13 01:44:53;;;;;;;11.43;8.27;;;;;;;10.29;100.00;100672.91;5019999;28;20633;-70
2023/05/13 01:47:19;;;;;;;13.90;8.70;;;;;;;10.28;100.00;100665.84;5027770;28;20207;-70
2023/05/13 01:49:46;;;;;;;12.43;8.27;;;;;;;10.20;100.00;100665.69;5027852;28;20211;-71
2023/05/13 01:52:12;;;;;;;10.60;8.20;;;;;;;10.27;100.00;100664.06;5013547;28;20224;-71
2023/05/13 01:54:38;;;;;;;15.50;8.20;;;;;;;10.28;100.00;100671.13;5008898;28;20201;-70
2023/05/13 01:57:05;;;;;;;13.10;9.07;;;;;;;10.29;100.00;100667.63;5007923;28;20301;-70
2023/05/13 01:59:32;;;;;;;12.70;8.57;;;;;;;10.34;100.00;100671.22;5025932;28;20213;-70
2023/05/13 02:01:58;;;;;;;12.10;8.10;;;;;;;10.28;100.00;100664.06;5023269;28;20194;-70
2023/05/13 02:04:25;;;;;;;16.93;9.27;;;;;;;10.31;100.00;100668.53;5022588;28;20263;-72
2023/05/13 02:06:51;;;;;;;13.33;9.03;;;;;;;10.46;100.00;100671.50;5022332;28;20672;-72
2023/05/13 02:09:17;;;;;;;11.00;8.27;;;;;;;10.44;100.00;100665.28;5020239;28;20221;-70
2023/05/13 02:11:44;;;;;;;11.63;7.57;;;;;;;10.46;100.00;100663.53;5027447;28;20205;-70
2023/05/13 02:14:11;;;;;;;11.17;8.40;;;;;;;10.40;100.00;100663.41;5026999;28;20211;-70
2023/05/13 02:16:37;;;;;;;12.87;8.20;;;;;;;10.38;100.00;100670.44;5022416;28;20263;-73
2023/05/13 02:19:04;;;;;;;10.13;7.93;;;;;;;10.32;100.00;100662.38;5026307;28;20203;-71
2023/05/13 02:21:31;;;;;;;11.53;7.90;;;;;;;10.32;100.00;100655.31;5027544;28;20209;-70
2023/05/13 02:23:57;;;;;;;11.97;8.20;;;;;;;10.31;100.00;100660.59;5026103;28;20221;-71
2023/05/13 02:26:23;;;;;;;10.37;7.80;;;;;;;10.26;100.00;100654.31;5020568;28;20200;-72
2023/05/13 02:28:50;;;;;;;8.97;7.23;;;;;;;10.22;100.00;100656.03;5023782;28;20251;-70
2023/05/13 02:31:16;;;;;;;10.00;7.47;;;;;;;10.16;100.00;100658.53;5029076;28;20623;-71
2023/05/13 02:33:43;;;;;;;13.80;7.60;;;;;;;10.12;100.00;100661.97;5025632;28;20252;-71
2023/05/13 02:36:09;;;;;;;11.53;7.67;;;;;;;10.11;100.00;100659.31;5007687;28;20265;-70
2023/05/13 02:38:35;;;;;;;10.50;7.87;;;;;;;10.12;100.00;100656.69;5002584;28;20196;-71
2023/05/13 02:41:02;;;;;;;10.47;8.23;;;;;;;10.24;100.00;100653.41;5022867;28;20223;-72
2023/05/13 02:43:28;;;;;;;12.90;7.90;;;;;;;10.20;100.00;100657.75;5015283;28;20721;-74
2023/05/13 02:45:55;;;;;;;10.00;7.60;;;;;;;10.09;100.00;100655.75;5027597;28;20258;-70
2023/05/13 02:48:21;;;;;;;11.23;8.00;;;;;;;10.01;100.00;100658.25;5026498;28;20662;-71
2023/05/13 02:50:48;;;;;;;12.73;7.83;;;;;;;10.00;100.00;100653.78;5027030;28;20255;-70
2023/05/13 02:53:15;;;;;;;10.00;7.60;;;;;;;9.96;100.00;100644.88;5007393;28;20229;-70
2023/05/13 02:55:41;;;;;;;9.73;8.07;;;;;;;10.07;100.00;100649.53;5027031;28;20220;-73
2023/05/13 02:58:08;;;;;;;9.50;7.60;;;;;;;9.95;100.00;100656.34;5024569;28;20630;-70
2023/05/13 03:00:34;;;;;;;12.13;8.20;;;;;;;9.81;100.00;100649.88;5025916;28;20253;-71
2023/05/13 03:03:01;;;;;;;9.20;7.70;;;;;;;9.85;100.00;100650.84;5025613;28;20762;-71
2023/05/13 03:05:27;;;;;;;10.57;7.80;;;;;;;9.83;100.00;100655.19;5006401;28;20191;-70
2023/05/13 03:07:56;;;;;;;11.77;7.60;;;;;;;9.79;100.00;100648.06;5025698;28;20224;-70
2023/05/13 03:10:23;;;;;;;13.93;8.90;;;;;;;9.85;100.00;100649.06;5003297;28;20246;-70
2023/05/13 03:12:49;;;;;;;14.43;8.50;;;;;;;9.84;100.00;100656.97;4996453;28;20317;-71
2023/05/13 03:15:16;;;;;;;11.10;8.40;;;;;;;9.84;100.00;100649.06;5019286;28;20233;-71
2023/05/13 03:17:43;;;;;;;13.93;8.90;;;;;;;9.91;100.00;100648.31;5024775;28;20204;-70
2023/05/13 03:20:10;;;;;;;12.27;8.07;;;;;;;9.90;100.00;100665.94;5024758;28;20198;-72
2023/05/13 03:22:39;;;;;;;12.60;8.20;;;;;;;9.96;100.00;100657.22;5009877;28;20230;-70
2023/05/13 03:25:06;;;;;;;10.10;7.40;;;;;;;9.94;100.00;100656.31;5021948;28;20668;-73
2023/05/13 03:27:32;;;;;;;10.93;8.03;;;;;;;9.95;100.00;100658.09;5018612;28;20207;-70
2023/05/13 03:29:59;;;;;;;9.20;6.93;;;;;;;9.95;100.00;100668.66;5026219;28;20199;-71
2023/05/13 03:32:29;;;;;;;11.43;7.70;;;;;;;9.95;100.00;100666.91;5031357;28;21042;-72
2023/05/13 03:34:56;;;;;;;9.30;7.37;;;;;;;9.92;100.00;100669.50;5021041;28;20392;-72
2023/05/13 03:37:23;;;;;;;11.37;7.60;;;;;;;9.90;100.00;100671.22;5012100;28;20292;-71
2023/05/13 03:39:50;;;;;;;9.43;7.50;;;;;;;9.89;100.00;100677.38;5028134;28;20744;-71
2023/05/13 03:42:17;;;;;;;15.40;7.53;;;;;;;9.92;100.00;100679.19;5027488;28;20274;-70
2023/05/13 03:44:43;;;;;;;12.87;8.37;;;;;;;9.99;100.00;100675.81;5030917;28;20667;-71
2023/05/13 03:47:09;;;;;;;13.83;8.60;;;;;;;10.12;100.00;100674.31;5026496;28;20214;-71
2023/05/13 03:49:36;;;;;;;13.00;8.30;;;;;;;10.27;100.00;100678.19;5022829;28;20199;-71
2023/05/13 03:52:03;;;;;;;11.33;8.63;;;;;;;10.29;100.00;100672.91;5027795;28;20503;-71
2023/05/13 03:54:29;;;;;;;11.80;8.43;;;;;;;10.23;100.00;100675.44;5027770;28;20262;-71
2023/05/13 03:56:55;;;;;;;12.33;8.03;;;;;;;10.25;100.00;100668.41;5025158;28;20211;-71
2023/05/13 03:59:22;;;;;;;11.27;8.70;;;;;;;10.34;100.00;100673.88;5004824;28;20634;-71
2023/05/13 04:01:49;;;;;;;10.17;8.20;;;;;;;10.39;100.00;100669.56;5030021;28;20231;-71
2023/05/13 04:04:15;;;;;;;11.10;8.17;;;;;;;10.38;100.00;100673.06;5010278;28;20217;-71
2023/05/13 04:06:41;;;;;;;11.00;8.10;;;;;;;10.40;100.00;100675.75;5029509;28;20579;-72
2023/05/13 04:09:08;;;;;;;12.17;8.20;;;;;;;10.39;100.00;100682.81;5028418;28;20206;-71
2023/05/13 04:11:34;;;;;;;13.43;8.10;;;;;;;10.42;100.00;100679.34;5018154;28;20203;-71
2023/05/13 04:14:01;;;;;;;12.17;8.40;;;;;;;10.45;100.00;100684.69;5006080;28;20280;-72
2023/05/13 04:16:28;;;;;;;10.63;7.90;;;;;;;10.44;100.00;100681.16;5028718;28;20230;-71
2023/05/13 04:18:54;;;;;;;11.40;8.33;;;;;;;10.59;100.00;100678.78;5029092;28;20614;-72
2023/05/13 04:21:21;;;;;;;11.83;7.93;;;;;;;10.68;100.00;100688.63;5020222;28;20670;-70
2023/05/13 04:23:47;;;;;;;11.33;7.83;;;;;;;10.70;100.00;100692.19;5022682;28;20228;-71
2023/05/13 04:26:13;;;;;;;11.23;7.67;;;;;;;10.73;100.00;100686.97;5021829;28;20338;-71
2023/05/13 04:28:40;;;;;;;9.73;7.67;;;;;;;10.73;100.00;100683.41;5025152;28;20271;-71
2023/05/13 04:31:06;;;;;;;9.33;7.10;;;;;;;10.68;100.00;100683.34;5028246;28;20621;-71
2023/05/13 04:33:32;;;;;;;10.73;7.87;;;;;;;10.65;100.00;100678.88;5027290;28;20335;-70
2023/05/13 04:35:59;;;;;;;8.93;6.93;;;;;;;10.67;100.00;100694.81;5026764;28;20215;-71
2023/05/13 04:38:25;;;;;;;8.47;6.80;;;;;;;10.70;100.00;100696.59;5019603;28;20203;-70
2023/05/13 04:40:52;;;;;;;12.40;7.47;;;;;;;10.74;100.00;100685.19;5026638;28;20201;-72
2023/05/13 04:43:20;;;;;;;12.77;8.00;;;;;;;10.88;100.00;100695.19;5028496;28;20720;-73
2023/05/13 04:45:47;;;;;;;11.43;8.13;;;;;;;11.01;100.00;100696.28;5023932;28;20203;-73
2023/05/13 04:48:14;;;;;;;11.13;7.83;;;;;;;11.10;100.00;100698.19;5020716;28;20286;-72
2023/05/13 04:50:47;;;;;;;10.03;7.50;;;;;;;11.22;100.00;100695.75;5029650;28;20235;-73
2023/05/13 04:53:14;;;;;;;12.40;7.17;;;;;;;11.27;100.00;100699.34;5022626;28;20256;-73
2023/05/13 04:55:40;;;;;;;11.00;7.23;;;;;;;11.47;100.00;100692.56;5022570;28;20700;-73
2023/05/13 04:58:07;;;;;;;12.50;7.00;;;;;;;11.50;100.00;100697.91;5029333;28;20209;-73
2023/05/13 05:00:33;;;;;;;10.27;7.23;;;;;;;11.59;100.00;100700.69;5028024;28;20206;-73
2023/05/13 05:02:59;;;;;;;8.00;6.63;;;;;;;11.70;100.00;100703.53;5025542;28;20268;-73
2023/05/13 05:05:26;;;;;;;10.37;7.23;;;;;;;11.75;100.00;100691.22;5026996;28;20249;-73
2023/05/13 05:07:52;;;;;;;7.77;6.47;;;;;;;11.83;100.00;100700.19;5026289;28;20285;-72
2023/05/13 05:10:19;;;;;;;7.37;6.37;;;;;;;11.92;100.00;100702.06;5027658;28;20280;-74
2023/05/13 05:12:46;;;;;;;10.50;6.73;;;;;;;12.04;100.00;100707.56;5026923;28;20227;-77
2023/05/13 05:15:14;;;;;;;12.40;7.50;;;;;;;12.07;100.00;100706.69;5029771;28;20207;-73
2023/05/13 05:17:42;;;;;;;8.37;7.40;;;;;;;12.27;100.00;100709.56;5017709;28;20257;-77
2023/05/13 05:20:09;;;;;;;10.03;7.77;;;;;;;12.48;100.00;100716.03;5023679;28;20207;-73
2023/05/13 05:22:40;;;;;;;9.80;6.60;;;;;;;12.61;100.00;100710.84;5022783;28;20262;-73
2023/05/13 05:25:08;;;;;;;9.23;7.50;;;;;;;12.63;100.00;100717.94;5025675;28;20344;-74
2023/05/13 05:27:35;;;;;;;9.47;7.10;;;;;;;12.82;100.00;100713.72;5027395;28;20192;-77
2023/05/13 05:30:01;;;;;;;9.13;7.00;;;;;;;12.97;100.00;100715.63;5024293;28;20642;-82
2023/05/13 05:32:28;;;;;;;9.87;6.60;;;;;;;13.02;100.00;100730.72;5028297;28;20599;-81
2023/05/13 05:34:54;;;;;;;9.77;6.50;;;;;;;13.08;100.00;100733.44;5025251;28;20644;-82
2023/05/13 05:37:21;;;;;;;8.17;6.10;;;;;;;13.21;100.00;100738.88;5008615;28;20220;-82
2023/05/13 05:39:47;;;;;;;7.73;6.53;;;;;;;13.38;100.00;100735.50;5009756;28;20230;-83
2023/05/13 05:42:13;;;;;;;8.10;6.47;;;;;;;13.55;100.00;100734.72;5026638;28;20222;-80
2023/05/13 05:44:40;;;;;;;11.33;6.57;;;;;;;13.66;100.00;100741.91;5026614;28;20710;-82
2023/05/13 05:47:06;;;;;;;12.20;6.80;;;;;;;13.83;100.00;100733.13;5026456;28;20286;-83
2023/05/13 05:49:32;;;;;;;10.47;6.70;;;;;;;13.96;100.00;100740.28;5026789;28;20203;-79
2023/05/13 05:51:59;;;;;;;8.97;6.57;;;;;;;14.07;100.00;100731.50;5028088;28;20200;-77
2023/05/13 05:54:26;;;;;;;7.90;5.93;;;;;;;14.06;100.00;100745.69;5025061;28;20208;-76
2023/05/13 05:56:53;;;;;;;10.23;5.97;;;;;;;14.28;100.00;100752.00;5021438;28;20259;-76
2023/05/13 05:59:19;;;;;;;9.07;6.30;;;;;;;14.41;100.00;100739.63;5007787;28;20257;-77
2023/05/13 06:01:45;;;;;;;9.97;5.90;;;;;;;14.53;100.00;100752.13;5026385;28;20199;-76
2023/05/13 06:04:12;;;;;;;8.50;5.30;;;;;;;14.66;100.00;100748.59;5022538;28;20223;-75
2023/05/13 06:06:39;;;;;;;9.60;6.83;;;;;;;14.77;100.00;100754.84;5024919;28;20702;-77
2023/05/13 06:09:05;;;;;;;10.20;6.07;;;;;;;14.92;100.00;100757.56;5024732;28;20226;-76
2023/05/13 06:11:32;;;;;;;11.07;6.13;;;;;;;15.03;100.00;100752.22;5005900;28;20256;-75
2023/05/13 06:13:58;;;;;;;6.67;5.87;;;;;;;15.22;100.00;100763.81;5016673;28;20756;-75
2023/05/13 06:16:24;;;;;;;7.97;5.93;;;;;;;15.19;100.00;100763.78;5020358;28;20568;-75
2023/05/13 06:18:51;;;;;;;11.67;5.97;;;;;;;15.26;98.65;100763.81;5022880;28;20304;-76
2023/05/13 06:21:17;;;;;;;8.37;5.63;;;;;;;15.31;100.00;100764.69;5021382;28;20227;-76
2023/05/13 06:23:44;;;;;;;13.40;6.23;;;;;;;15.41;99.72;100759.34;5023981;28;20220;-75
2023/05/13 06:26:11;;;;;;;8.67;6.20;;;;;;;15.31;99.84;100755.81;5025748;28;20644;-75
2023/05/13 06:28:37;;;;;;;8.57;6.17;;;;;;;15.31;99.71;100764.69;5021455;28;20303;-75
2023/05/13 06:31:03;;;;;;;8.23;5.90;;;;;;;15.29;100.00;100765.59;5027735;28;20199;-76
2023/05/13 06:33:30;;;;;;;11.47;6.17;;;;;;;15.34;100.00;100771.81;4994713;28;20223;-74
2023/05/13 06:35:56;;;;;;;7.93;6.20;;;;;;;15.47;98.02;100764.69;5023455;28;20582;-72
2023/05/13 06:38:22;;;;;;;11.40;6.37;;;;;;;15.35;96.75;100766.47;5024259;28;20306;-73
2023/05/13 06:40:49;;;;;;;12.13;6.30;;;;;;;15.50;96.63;100768.25;5023853;28;20203;-71
2023/05/13 06:43:16;;;;;;;9.03;6.00;;;;;;;15.70;95.84;100759.38;5021729;28;20411;-71
2023/05/13 06:45:43;;;;;;;8.57;5.73;;;;;;;15.79;94.31;100754.91;5031827;28;20200;-72
2023/05/13 06:48:09;;;;;;;10.17;6.43;;;;;;;15.60;94.76;100762.03;5023688;28;20199;-73
2023/05/13 06:50:36;;;;;;;11.83;5.60;;;;;;;15.70;95.35;100768.28;5028565;28;20559;-73
2023/05/13 06:53:02;;;;;;;12.40;6.13;;;;;;;15.98;93.90;100758.41;5008786;28;20219;-72
2023/05/13 06:55:29;;;;;;;9.87;5.87;;;;;;;16.07;91.47;100761.06;5029223;28;20254;-71
2023/05/13 06:57:55;;;;;;;10.57;5.83;;;;;;;16.14;91.55;100767.28;5025145;28;20219;-74
2023/05/13 07:00:22;;;;;;;8.93;5.73;;;;;;;16.37;90.04;100760.03;5024721;28;20780;-75
2023/05/13 07:02:48;;;;;;;7.50;5.40;;;;;;;16.52;87.47;100764.44;5028124;28;20281;-73
2023/05/13 07:05:14;;;;;;;6.47;5.00;;;;;;;16.98;86.50;100757.06;5027385;28;20203;-75
2023/05/13 07:07:42;;;;;;;7.10;5.20;;;;;;;17.57;81.49;100760.16;5026970;28;20195;-74
2023/05/13 07:10:09;;;;;;;4.97;4.30;;;;;;;18.30;78.55;100762.09;5025836;28;20644;-74
2023/05/13 07:12:35;;;;;;;6.43;5.10;;;;;;;19.12;75.79;100754.72;5011914;28;20223;-73
2023/05/13 07:15:02;;;;;;;6.30;4.53;;;;;;;19.25;73.41;100749.16;5027371;28;20733;-73
2023/05/13 07:17:30;;;;;;;4.93;4.30;;;;;;;19.60;72.30;100753.94;5027006;28;20764;-73
2023/05/13 07:19:56;;;;;;;5.57;4.50;;;;;;;20.40;68.34;100755.09;5025555;28;20243;-73
2023/05/13 07:22:23;;;;;;;6.30;3.90;;;;;;;22.05;59.22;100749.34;5024571;28;20258;-74
2023/05/13 07:24:49;;;;;;;4.63;3.20;;;;;;;22.90;54.23;100745.94;5007367;28;20203;-73
2023/05/13 07:27:16;;;;;;;4.23;3.53;;;;;;;23.29;54.38;100754.59;5027209;28;20203;-73
2023/05/13 07:29:42;;;;;;;5.77;3.53;;;;;;;24.28;47.07;100745.72;5027830;28;20213;-73
2023/05/13 07:32:08;;;;;;;4.10;3.50;;;;;;;25.33;42.77;100751.53;5024661;28;20219;-73
2023/05/13 07:34:35;;;;;;;3.95;3.13;;;;;;;26.04;40.03;100748.47;5030011;28;20651;-73
2023/05/13 07:37:03;;;;;;;6.68;3.38;;;;;;;26.04;37.80;100747.59;5026983;28;20597;-73
2023/05/13 07:39:29;;;;;;;4.28;2.60;;;;;;;26.06;36.13;100752.00;5008582;28;20273;-73
2023/05/13 07:41:56;;;;;;;5.90;2.80;;;;;;;26.46;35.35;100751.09;5028061;28;20207;-71
2023/05/13 07:44:22;;;;;;;4.68;3.00;;;;;;;26.26;35.90;100755.63;5026042;28;20197;-71
2023/05/13 07:46:52;;;;;;;3.65;3.05;;;;;;;24.66;35.47;100760.50;5028891;28;20224;-72
2023/05/13 07:49:19;;;;;;;3.38;2.28;;;;;;;24.61;35.34;100757.09;5026140;28;20222;-71
2023/05/13 07:51:46;;;;;;;4.97;2.50;;;;;;;24.32;35.73;100761.78;5011626;28;20260;-70
2023/05/13 07:54:12;;;;;;;2.47;2.28;;;;;;;24.26;36.04;100764.69;5004540;28;20191;-71
2023/05/13 07:56:39;;;;;;;2.97;2.30;;;;;;;24.24;35.56;100769.28;5027915;28;20630;-69
2023/05/13 07:59:05;;;;;;;3.17;2.58;;;;;;;23.81;36.02;100769.94;5022409;28;20663;-69
2023/05/13 08:01:31;;;;;;;3.63;2.60;;;;;;;23.12;37.46;100774.91;5027849;28;20771;-69
2023/05/13 08:03:58;;;;;;;4.25;2.65;;;;;;;21.93;39.75;100773.91;5025521;28;20677;-69
2023/05/13 08:06:24;;;;;;;5.53;2.83;;;;;;;20.83;42.54;100776.63;5025269;28;20277;-69
2023/05/13 08:08:51;;;;;;;4.40;2.40;;;;;;;20.46;44.63;100763.97;5024000;28;20200;-69
2023/05/13 08:11:17;;;;;;;2.80;2.60;;;;;;;20.78;44.57;100774.00;5023907;28;20726;-69
2023/05/13 08:13:44;;;;;;;4.27;2.77;;;;;;;21.18;43.35;100760.50;5026236;28;20224;-69
2023/05/13 08:16:10;;;;;;;5.70;2.50;;;;;;;21.14;44.14;100766.00;5026550;28;20617;-70
2023/05/13 08:18:36;;;;;;;3.93;2.70;;;;;;;20.89;44.13;100753.13;5024389;28;20226;-70
2023/05/13 08:21:03;;;;;;;3.35;2.55;;;;;;;21.05;45.40;100763.53;5025826;28;20204;-69
2023/05/13 08:23:30;;;;;;;3.20;2.67;;;;;;;20.21;43.65;100765.34;5026468;28;20587;-71
2023/05/13 08:26:10;;;;;;;4.47;2.67;;;;;;;19.93;46.09;100759.59;5023306;28;20199;-71
2023/05/13 08:28:37;;;;;;;3.70;2.90;;;;;;;20.16;46.46;100760.06;5024487;28;20298;-72
2023/05/13 08:31:03;;;;;;;4.53;2.73;;;;;;;20.23;45.45;100759.00;5024034;28;20204;-71
2023/05/13 08:33:30;;;;;;;3.00;2.70;;;;;;;20.23;44.60;100758.13;5022367;28;20653;-69
2023/05/13 08:35:58;;;;;;;4.90;2.92;;;;;;;20.68;45.76;100760.78;5026663;28;20203;-70
2023/05/13 08:38:25;;;;;;;5.70;2.70;;;;;;;20.72;45.09;100763.38;5025296;28;20224;-70
2023/05/13 08:40:51;;;;;;;5.35;2.63;;;;;;;20.74;44.50;100766.03;5026572;28;20287;-70
2023/05/13 08:43:18;;;;;;;3.58;2.78;;;;;;;20.59;45.07;100759.19;5023706;28;20306;-69
2023/05/13 08:45:46;;;;;;;3.20;2.60;;;;;;;20.54;44.53;100766.50;5024605;28;20214;-69
2023/05/13 08:48:15;;;;;;;2.83;2.50;;;;;;;20.69;45.26;100767.94;5023720;28;20211;-69
2023/05/13 08:50:41;;;;;;;4.75;3.00;;;;;;;20.70;45.13;100765.22;5027086;28;20203;-69
2023/05/13 08:53:09;;;;;;;3.40;2.78;;;;;;;20.82;44.79;100769.47;5026572;28;20250;-69
2023/05/13 08:55:39;;;;;;;4.03;3.20;;;;;;;20.89;45.77;100765.72;5026411;28;20233;-69
2023/05/13 08:58:06;;;;;;;4.35;2.85;;;;;;;20.88;45.62;100767.53;5023466;28;20216;-69
2023/05/13 09:00:34;;;;;;;5.30;3.00;;;;;;;20.92;45.98;100771.03;5025298;28;20199;-69
2023/05/13 09:03:00;;;;;;;5.90;2.80;;;;;;;20.89;45.40;100763.03;5023922;28;20267;-70
2023/05/13 09:05:27;;;;;;;5.35;3.28;;;;;;;20.90;44.63;100759.41;5024656;28;20237;-70
2023/05/13 09:07:54;;;;;;;4.13;3.13;;;;;;;20.90;45.96;100762.97;5026983;28;20644;-69
2023/05/13 09:10:20;;;;;;;5.10;3.08;;;;;;;20.90;44.67;100764.78;5006252;28;20205;-68
2023/05/13 09:12:54;;;;;;;3.50;3.10;;;;;;;20.99;44.56;100772.66;5029403;28;20761;-68
2023/05/13 09:15:25;;;;;;;4.43;3.65;;;;;;;21.37;44.38;100765.50;5022399;28;20215;-71
2023/05/13 09:17:58;;;;;;;3.72;3.28;;;;;;;21.67;42.66;100777.31;5021876;28;20226;-70
2023/05/13 09:20:25;;;;;;;3.20;2.90;;;;;;;22.16;42.11;100756.22;5026707;28;20215;-70
2023/05/13 09:22:57;;;;;;;3.22;2.58;;;;;;;22.78;40.76;100764.25;5023240;28;20216;-71
2023/05/13 09:25:24;;;;;;;3.20;2.90;;;;;;;23.06;38.42;100774.22;5018787;28;20192;-70
2023/05/13 09:27:57;;;;;;;3.28;2.55;;;;;;;22.94;39.10;100771.94;5027762;28;20637;-70
2023/05/13 09:30:26;;;;;;;4.05;2.60;;;;;;;22.68;39.63;100767.28;5025740;28;20192;-69
2023/05/13 09:33:07;;;;;;;4.47;3.00;;;;;;;22.43;40.69;100768.03;5027988;28;20246;-69
2023/05/13 09:35:36;;;;;;;2.92;2.50;;;;;;;22.38;40.39;100763.66;5022071;28;20233;-70
2023/05/13 09:38:16;;;;;;;3.30;2.85;;;;;;;22.77;39.64;100764.28;5028861;28;20261;-70
2023/05/13 09:40:59;;;;;;;4.45;2.55;;;;;;;22.70;39.30;100742.00;5022830;28;20637;-71
2023/05/13 09:43:31;;;;;;;4.72;3.00;;;;;;;22.49;39.91;100753.47;5024570;28;20228;-68
2023/05/13 09:46:01;;;;;;;5.22;2.80;;;;;;;22.28;40.89;100748.69;5010960;28;20619;-68
2023/05/13 09:48:29;;;;;;;5.78;2.90;;;;;;;22.27;40.10;100747.78;5024498;28;20195;-68
2023/05/13 09:50:58;;;;;;;5.07;2.97;;;;;;;21.97;41.54;100748.63;5029939;28;20203;-68
2023/05/13 09:53:26;;;;;;;3.00;2.67;;;;;;;22.12;41.21;100746.44;5027608;28;20246;-69
2023/05/13 09:55:54;;;;;;;4.45;2.92;;;;;;;22.40;42.62;100740.22;5015091;28;20200;-69
2023/05/13 09:58:23;;;;;;;5.65;2.70;;;;;;;22.31;42.11;100744.06;5028442;28;20218;-69
2023/05/13 10:00:49;;;;;;;5.22;2.70;;;;;;;22.47;42.48;100731.03;5028088;28;20199;-69
2023/05/13 10:03:16;;;;;;;6.45;2.90;;;;;;;22.42;41.17;100741.97;5013543;28;20303;-69
2023/05/13 10:05:43;;;;;;;8.45;2.80;;;;;;;22.36;42.14;100739.44;5020547;28;20195;-69
2023/05/13 10:08:12;;;;;;;3.47;2.88;;;;;;;22.09;40.87;100734.84;5022326;28;20652;-69
2023/05/13 10:10:42;;;;;;;3.55;2.72;;;;;;;21.96;42.37;100730.66;5029584;28;20226;-69
2023/05/13 10:13:11;;;;;;;3.70;2.80;;;;;;;22.12;42.06;100721.28;5012809;28;20263;-69
2023/05/13 10:15:48;;;;;;;2.83;2.53;;;;;;;22.16;41.65;100734.63;5015447;28;20255;-68
2023/05/13 10:18:16;;;;;;;4.65;2.75;;;;;;;21.95;41.10;100728.91;5027623;28;20237;-68
2023/05/13 10:20:43;;;;;;;3.60;2.88;;;;;;;21.99;41.41;100735.97;5029812;28;20207;-68
2023/05/13 10:23:11;;;;;;;4.32;2.97;;;;;;;21.94;41.33;100730.72;5027739;28;20282;-68
2023/05/13 10:25:37;;;;;;;3.33;2.95;;;;;;;22.04;41.29;100726.00;5010439;28;20206;-69
2023/05/13 10:28:04;;;;;;;4.80;2.85;;;;;;;22.11;40.32;100725.78;5016297;28;20251;-69
2023/05/13 10:30:32;;;;;;;3.08;2.55;;;;;;;22.16;42.31;100726.53;5017847;28;20195;-68
2023/05/13 10:33:00;;;;;;;4.15;3.03;;;;;;;21.74;41.01;100727.69;5029213;28;20318;-68
2023/05/13 10:35:33;;;;;;;6.03;3.25;;;;;;;21.80;40.85;100727.53;5018393;28;20207;-68
2023/05/13 10:38:14;;;;;;;4.22;2.80;;;;;;;21.99;42.09;100715.28;5020530;28;20636;-69
2023/05/13 10:40:48;;;;;;;5.82;3.20;;;;;;;22.34;41.33;100721.50;5023639;28;20203;-69
2023/05/13 10:43:20;;;;;;;5.68;3.20;;;;;;;22.46;39.53;100705.84;5057325;23;20234;-72
2023/05/13 10:45:48;;;;;;;4.68;3.22;;;;;;;22.49;40.51;100708.47;5048478;28;20207;-71
2023/05/13 10:48:16;;;;;;;3.28;2.97;;;;;;;22.63;39.14;100701.75;5044190;28;20187;-71
2023/05/13 10:50:59;;;;;;;5.03;3.97;;;;;;;22.63;39.62;100701.75;5048596;28;20392;-71
2023/05/13 10:53:36;;;;;;;3.35;2.90;;;;;;;22.41;39.84;100704.19;5048891;28;20314;-69
2023/05/13 10:56:06;;;;;;;3.60;3.10;;;;;;;22.68;39.44;100697.97;5047529;28;20532;-70
2023/05/13 10:58:36;;;;;;;3.58;3.28;;;;;;;22.84;41.12;100703.81;5041738;28;20211;-71
2023/05/13 11:01:28;;;;;;;3.83;3.22;;;;;;;23.06;39.79;100702.16;5047904;28;20199;-71
2023/05/13 11:03:57;;;;;;;5.43;3.40;;;;;;;22.60;39.07;100702.72;5049798;28;20250;-71
2023/05/13 11:06:41;;;;;;;5.13;3.35;;;;;;;22.56;38.35;100692.94;5048875;28;20256;-72
2023/05/13 11:09:11;;;;;;;7.43;3.08;;;;;;;22.58;38.19;100696.50;5048974;28;20198;-71
2023/05/13 11:11:38;;;;;;;3.47;3.17;;;;;;;22.59;38.16;100683.88;5049133;28;20733;-71
2023/05/13 11:14:20;;;;;;;4.28;3.40;;;;;;;22.62;38.66;100679.25;5047440;28;20219;-71
2023/05/13 11:17:06;;;;;;;4.72;3.53;;;;;;;22.77;40.73;100680.56;5043887;28;20209;-70
2023/05/13 11:19:36;;;;;;;4.78;3.25;;;;;;;22.56;37.74;100667.78;5047439;28;20616;-71
2023/05/13 11:22:09;;;;;;;4.00;3.20;;;;;;;22.78;38.83;100671.53;5031556;28;20253;-71
2023/05/13 11:24:35;;;;;;;7.30;4.35;;;;;;;22.55;38.09;100675.00;5042644;28;20208;-71